Time;durP1;ratioP1;P1;durP2;ratioP2;P2;SDS_P1;SDS_P2;PMS_P1;PMS_P2;Temp;Humidity;BMP_temperature;BMP_pressure;BME280_temperature;BME280_humidity;BME280_pressure;Samples;Min_cycle;Max_cycle;Signal;HPM_P1;HPM_P2
2022/01/19 00:01:28;;;;;;;14.40;11.18;;;;;;;5.14;67.81;100479.66;2622432;54;20877;-71
2022/01/19 00:04:00;;;;;;;13.75;11.75;;;;;;;5.11;67.53;100476.44;2624956;31;20543;-71
2022/01/19 00:06:30;;;;;;;14.77;12.20;;;;;;;5.11;67.85;100476.44;2623151;47;20038;-71
2022/01/19 00:09:00;;;;;;;13.68;11.27;;;;;;;5.12;68.12;100470.22;2623205;47;20027;-71
2022/01/19 00:11:29;;;;;;;12.13;10.75;;;;;;;5.10;67.55;100472.13;2621696;54;20074;-70
2022/01/19 00:13:59;;;;;;;12.95;10.57;;;;;;;5.11;67.98;100458.09;2621311;47;20079;-70
2022/01/19 00:16:28;;;;;;;12.60;10.32;;;;;;;5.17;67.70;100436.63;2621116;39;20462;-70
2022/01/19 00:19:01;;;;;;;13.63;11.35;;;;;;;5.18;67.76;100425.19;2621398;54;20027;-70
2022/01/19 00:21:32;;;;;;;13.25;9.85;;;;;;;5.22;67.80;100421.38;2622419;47;20039;-70
2022/01/19 00:24:02;;;;;;;13.18;10.05;;;;;;;5.26;67.25;100414.09;2623505;39;20451;-70
2022/01/19 00:26:36;;;;;;;13.68;11.32;;;;;;;5.18;67.32;100410.31;2622322;54;20034;-70
2022/01/19 00:29:06;;;;;;;12.82;10.82;;;;;;;5.18;67.29;100412.06;2622872;54;20030;-70
2022/01/19 00:31:36;;;;;;;12.60;10.95;;;;;;;5.14;67.63;100414.13;2621815;54;20031;-70
2022/01/19 00:34:08;;;;;;;11.82;10.55;;;;;;;5.14;67.73;100418.50;2621698;54;20030;-70
2022/01/19 00:36:37;;;;;;;10.40;8.45;;;;;;;5.13;67.68;100419.47;2622550;54;20034;-70
2022/01/19 00:39:07;;;;;;;10.25;8.73;;;;;;;5.11;67.14;100424.00;2621744;54;20030;-70
2022/01/19 00:41:36;;;;;;;9.05;7.85;;;;;;;5.01;66.93;100434.34;2622915;54;20030;-70
2022/01/19 00:44:07;;;;;;;6.95;5.95;;;;;;;4.95;67.36;100434.81;2622655;54;20553;-70
2022/01/19 00:46:36;;;;;;;9.15;6.15;;;;;;;4.89;67.12;100441.34;2622002;54;20023;-70
2022/01/19 00:49:12;;;;;;;7.07;5.25;;;;;;;4.94;67.27;100434.00;2621916;47;20110;-70
2022/01/19 00:51:42;;;;;;;5.95;5.38;;;;;;;4.95;67.06;100427.78;2622211;54;20053;-71
2022/01/19 00:54:11;;;;;;;8.07;5.40;;;;;;;4.95;66.88;100432.19;2622118;54;20023;-70
2022/01/19 00:56:43;;;;;;;5.80;4.82;;;;;;;4.92;67.01;100424.56;2623269;54;20113;-70
2022/01/19 00:59:13;;;;;;;6.15;4.80;;;;;;;4.91;66.86;100428.97;2622396;54;20037;-70
2022/01/19 01:01:42;;;;;;;8.77;5.97;;;;;;;4.84;66.61;100425.13;2621480;54;20023;-70
2022/01/19 01:04:16;;;;;;;8.48;5.38;;;;;;;4.89;67.32;100414.31;2622340;54;20701;-70
2022/01/19 01:06:45;;;;;;;5.63;5.07;;;;;;;4.95;66.94;100422.56;2622389;54;20102;-70
2022/01/19 01:09:15;;;;;;;5.80;5.15;;;;;;;4.94;66.91;100417.44;2621532;47;20034;-70
2022/01/19 01:11:58;;;;;;;7.20;4.80;;;;;;;4.90;67.02;100408.97;2622396;39;20418;-70
2022/01/19 01:18:17;;;;;;;5.28;4.60;;;;;;;4.82;66.79;100411.34;2622844;39;20410;-70
2022/01/19 01:20:09;;;;;;;4.85;4.32;;;;;;;4.74;66.60;100411.09;2624137;54;20042;-69
2022/01/19 01:22:40;;;;;;;6.82;4.75;;;;;;;4.71;66.91;100393.81;2623670;54;20038;-69
2022/01/19 01:25:11;;;;;;;7.10;4.80;;;;;;;4.76;67.26;100380.34;2624293;54;20061;-69
2022/01/19 01:27:41;;;;;;;5.68;4.90;;;;;;;4.75;66.89;100377.84;2623784;39;20446;-69
2022/01/19 01:30:11;;;;;;;7.63;5.53;;;;;;;4.66;66.88;100369.75;2622950;54;20050;-70
2022/01/19 01:32:41;;;;;;;6.28;4.90;;;;;;;4.66;66.72;100353.19;2622567;54;20030;-69
2022/01/19 01:35:14;;;;;;;6.10;5.50;;;;;;;4.61;66.74;100347.44;2623072;54;20042;-70
2022/01/19 01:37:44;;;;;;;7.63;5.15;;;;;;;4.58;66.84;100348.53;2623839;39;20411;-69
2022/01/19 01:40:14;;;;;;;7.15;5.22;;;;;;;4.57;66.89;100354.72;2622642;54;20031;-69
2022/01/19 01:42:48;;;;;;;6.55;4.72;;;;;;;4.64;67.41;100355.91;2623196;47;20114;-69
2022/01/19 01:45:25;;;;;;;11.65;6.85;;;;;;;4.72;66.94;100361.41;2623861;54;20029;-70
2022/01/19 01:48:04;;;;;;;8.43;6.43;;;;;;;4.70;66.58;100367.72;2623398;39;20435;-69
2022/01/19 01:53:30;;;;;;;7.82;5.80;;;;;;;4.63;66.70;100351.63;2623205;54;20121;-69
2022/01/19 01:56:03;;;;;;;6.85;5.65;;;;;;;4.63;67.12;100337.72;2623325;54;20114;-69
2022/01/19 01:58:35;;;;;;;10.18;6.10;;;;;;;4.57;66.91;100323.31;2623489;54;20042;-69
2022/01/19 02:01:22;;;;;;;6.97;5.72;;;;;;;4.48;67.12;100313.50;2623909;54;20156;-69
2022/01/19 02:03:53;;;;;;;8.05;6.18;;;;;;;4.36;66.63;100304.78;2624164;47;20034;-70
2022/01/19 02:06:45;;;;;;;8.35;6.40;;;;;;;4.24;67.21;100292.63;2623734;54;20034;-70
2022/01/19 02:09:51;;;;;;;7.47;6.38;;;;;;;4.08;67.44;100281.63;2623841;54;20029;-69
2022/01/19 02:23:45;;;;;;;10.38;7.95;;;;;;;3.89;68.27;100250.81;2623861;47;20041;-70
2022/01/19 02:26:21;;;;;;;9.30;7.68;;;;;;;3.86;67.97;100235.31;2625070;54;20034;-70
2022/01/19 02:29:04;;;;;;;9.80;7.30;;;;;;;3.77;68.26;100215.09;2622914;54;20042;-70
2022/01/19 02:36:31;;;;;;;11.27;7.55;;;;;;;3.69;68.32;100194.75;2624497;51;20086;-71
2022/01/19 02:40:25;;;;;;;11.98;7.22;;;;;;;3.52;68.99;100169.03;2624036;39;20466;-71
2022/01/19 02:43:07;;;;;;;9.07;6.80;;;;;;;3.47;68.92;100157.13;2623621;39;20513;-70
2022/01/19 02:51:12;;;;;;;11.95;7.57;;;;;;;3.25;69.66;100140.50;2623069;54;20039;-71
2022/01/19 02:53:50;;;;;;;9.93;7.30;;;;;;;3.26;70.11;100165.69;2625150;54;20075;-71
2022/01/19 02:56:29;;;;;;;10.15;7.10;;;;;;;3.29;70.07;100163.69;2624041;46;20027;-70
2022/01/19 02:59:15;;;;;;;11.43;7.70;;;;;;;3.29;70.11;100150.63;2624717;54;20041;-70
2022/01/19 03:10:06;;;;;;;11.23;7.93;;;;;;;3.30;69.94;100144.44;2624115;46;20035;-72
2022/01/19 03:12:43;;;;;;;10.25;7.78;;;;;;;3.21;69.96;100140.72;2626175;54;20041;-70
2022/01/19 03:15:15;;;;;;;11.15;7.10;;;;;;;3.28;70.41;100146.34;2625169;46;20058;-70
2022/01/19 03:17:45;;;;;;;10.93;8.38;;;;;;;3.31;70.02;100138.28;2627370;54;20063;-70
2022/01/19 03:20:15;;;;;;;11.23;8.38;;;;;;;3.23;70.12;100136.25;2625956;54;20032;-69
2022/01/19 03:22:53;;;;;;;12.43;8.25;;;;;;;3.21;70.57;100138.13;2626239;46;20030;-69
2022/01/19 03:25:26;;;;;;;10.32;7.18;;;;;;;3.28;70.34;100140.28;2625862;54;20644;-71
2022/01/19 03:28:06;;;;;;;15.00;8.38;;;;;;;3.24;70.43;100129.22;2626094;54;20059;-71
2022/01/19 03:30:36;;;;;;;9.23;7.40;;;;;;;3.25;70.49;100133.50;2623962;54;20120;-69
2022/01/19 03:33:06;;;;;;;11.77;7.75;;;;;;;3.35;70.50;100141.53;2622831;54;20030;-70
2022/01/19 03:35:45;;;;;;;10.68;7.38;;;;;;;3.35;70.62;100142.34;2625351;54;20034;-70
2022/01/19 03:38:16;;;;;;;12.48;7.60;;;;;;;3.35;70.42;100144.97;2625139;54;20030;-71
2022/01/19 03:40:48;;;;;;;8.88;6.78;;;;;;;3.36;70.63;100149.22;2624796;54;20029;-69
2022/01/19 03:43:19;;;;;;;7.90;7.10;;;;;;;3.41;70.33;100149.72;2624831;54;20138;-70
2022/01/19 03:46:13;;;;;;;8.50;7.05;;;;;;;3.38;69.66;100151.72;2625325;39;20195;-68
2022/01/19 03:48:56;;;;;;;9.60;7.63;;;;;;;3.30;69.64;100141.81;2625950;54;20030;-69
2022/01/19 03:51:26;;;;;;;12.07;8.15;;;;;;;3.19;70.44;100147.03;2626156;54;20026;-70
2022/01/19 03:53:56;;;;;;;11.55;8.70;;;;;;;3.17;70.49;100143.69;2626189;54;20023;-70
2022/01/19 03:56:35;;;;;;;12.60;8.15;;;;;;;3.19;70.93;100145.25;2626406;54;20087;-71
2022/01/19 03:59:07;;;;;;;13.35;8.77;;;;;;;3.19;70.17;100139.19;2626517;54;20046;-70
2022/01/19 04:01:37;;;;;;;12.50;7.97;;;;;;;3.09;70.23;100128.56;2625859;54;20058;-70
2022/01/19 04:04:28;;;;;;;10.98;7.68;;;;;;;3.03;70.67;100129.03;2626522;51;20035;-70
2022/01/19 04:07:21;;;;;;;9.05;7.60;;;;;;;2.91;71.07;100127.31;2625293;54;20045;-71
2022/01/19 04:09:51;;;;;;;13.15;7.75;;;;;;;2.87;70.67;100128.47;2624425;47;20043;-71
2022/01/19 04:12:42;;;;;;;11.20;7.85;;;;;;;2.86;70.94;100127.66;2622809;54;20034;-69
2022/01/19 04:15:36;;;;;;;9.10;7.03;;;;;;;2.88;71.27;100127.53;2624022;54;20018;-70
2022/01/19 04:18:28;;;;;;;12.07;6.10;;;;;;;2.92;70.81;100119.34;2624389;54;20094;-71
2022/01/19 04:21:02;;;;;;;9.40;6.22;;;;;;;2.95;70.96;100116.53;2624206;54;20026;-70
2022/01/19 04:23:39;;;;;;;9.70;6.10;;;;;;;2.95;71.09;100115.69;2624172;54;20104;-69
2022/01/19 04:26:25;;;;;;;8.45;6.05;;;;;;;2.96;70.72;100118.19;2624331;54;20031;-69
2022/01/19 04:29:06;;;;;;;10.43;5.80;;;;;;;2.94;70.79;100116.66;2623913;46;20121;-71
2022/01/19 04:31:39;;;;;;;10.25;6.38;;;;;;;2.94;70.59;100119.25;2623790;54;20062;-70
2022/01/19 04:34:25;;;;;;;10.18;6.55;;;;;;;3.02;70.67;100116.06;2623940;47;20644;-71
2022/01/19 04:37:27;;;;;;;12.25;7.93;;;;;;;3.03;71.00;100110.75;2623920;54;20539;-70
2022/01/19 04:54:39;;;;;;;10.88;7.15;;;;;;;2.47;71.07;100120.88;2622699;54;20033;-70
2022/01/19 05:03:38;;;;;;;10.20;6.78;;;;;;;2.53;71.56;100104.78;2622571;54;20160;-68
2022/01/19 05:09:50;;;;;;;10.13;6.75;;;;;;;2.32;71.37;100088.84;2621975;47;20030;-69
2022/01/19 05:15:15;;;;;;;11.40;7.10;;;;;;;2.14;71.79;100082.34;2623193;39;20423;-69
2022/01/19 05:17:45;;;;;;;10.85;6.38;;;;;;;2.11;72.31;100080.78;2620814;47;20042;-65
2022/01/19 05:20:18;;;;;;;9.75;6.25;;;;;;;2.22;72.36;100086.06;2617940;54;20030;-65
2022/01/19 05:22:47;;;;;;;20.58;10.65;;;;;;;2.26;71.71;100084.09;2617885;54;20034;-64
2022/01/19 05:25:20;;;;;;;15.05;9.35;;;;;;;2.11;71.82;100080.78;2617943;54;20576;-64
2022/01/19 05:27:54;;;;;;;19.00;11.05;;;;;;;1.99;72.03;100085.06;2618823;54;20034;-65
2022/01/19 05:30:24;;;;;;;21.73;10.32;;;;;;;1.86;71.98;100086.84;2622299;47;20597;-67
2022/01/19 05:32:54;;;;;;;15.48;8.85;;;;;;;1.73;72.08;100080.81;2619816;51;20027;-65
2022/01/19 05:35:27;;;;;;;13.82;8.70;;;;;;;1.57;72.52;100075.81;2618206;47;20034;-64
2022/01/19 05:38:35;;;;;;;9.80;7.05;;;;;;;1.42;73.01;100072.47;2618887;47;20055;-63
2022/01/19 05:41:14;;;;;;;9.88;6.97;;;;;;;1.32;73.18;100068.81;2618155;47;20037;-65
2022/01/19 05:43:45;;;;;;;13.27;6.55;;;;;;;1.23;73.58;100064.22;2618181;47;20026;-64
2022/01/19 05:46:15;;;;;;;9.40;6.55;;;;;;;1.09;73.67;100051.28;2617741;47;20033;-65
2022/01/19 05:48:45;;;;;;;14.65;8.07;;;;;;;1.08;74.31;100052.22;2618409;54;20038;-64
2022/01/19 05:51:17;;;;;;;8.45;6.32;;;;;;;1.07;74.20;100055.78;2618132;54;20526;-64
2022/01/19 05:53:49;;;;;;;10.57;7.00;;;;;;;1.08;74.48;100047.84;2618700;54;20039;-64
2022/01/19 05:56:19;;;;;;;9.55;6.60;;;;;;;1.07;74.32;100040.97;2618146;47;20027;-64
2022/01/19 05:59:03;;;;;;;8.02;5.82;;;;;;;0.99;74.68;100035.44;2618336;46;20034;-65
2022/01/19 06:01:32;;;;;;;7.88;5.95;;;;;;;0.99;74.87;100032.84;2618079;47;20030;-64
2022/01/19 06:04:03;;;;;;;13.43;6.70;;;;;;;1.04;75.06;100029.91;2617850;54;20143;-64
2022/01/19 06:06:56;;;;;;;13.80;7.43;;;;;;;1.03;75.15;100025.66;2618644;54;20121;-64
2022/01/19 06:10:01;;;;;;;10.88;7.13;;;;;;;1.10;75.29;100017.34;2618752;54;20032;-64
2022/01/19 06:12:34;;;;;;;8.70;6.43;;;;;;;1.21;75.12;100022.63;2617743;47;20027;-64
2022/01/19 06:15:05;;;;;;;10.73;6.63;;;;;;;1.18;74.73;100024.59;2618093;46;20034;-65
2022/01/19 06:17:35;;;;;;;13.65;7.18;;;;;;;1.16;74.76;100018.69;2617944;54;20559;-63
2022/01/19 06:20:09;;;;;;;13.15;8.25;;;;;;;1.10;74.93;100006.91;2618004;46;20030;-65
2022/01/19 06:22:41;;;;;;;10.68;7.28;;;;;;;1.15;74.90;100012.66;2617927;54;20050;-63
2022/01/19 06:25:11;;;;;;;10.20;6.75;;;;;;;1.18;74.79;100012.44;2617470;54;20031;-64
2022/01/19 06:27:41;;;;;;;13.50;7.45;;;;;;;1.24;74.84;100006.81;2617518;54;20034;-63
2022/01/19 06:30:14;;;;;;;11.88;7.72;;;;;;;1.36;74.77;100012.97;2618322;54;20041;-64
2022/01/19 06:32:46;;;;;;;25.02;10.73;;;;;;;1.47;74.88;100010.47;2617864;54;20147;-64
2022/01/19 06:35:17;;;;;;;15.88;8.63;;;;;;;1.46;73.91;100008.78;2617862;47;20070;-64
2022/01/19 06:38:07;;;;;;;15.65;9.65;;;;;;;1.45;73.49;100001.91;2618452;54;20033;-64
2022/01/19 06:40:50;;;;;;;16.48;9.65;;;;;;;1.34;73.89;100011.38;2617831;47;20041;-64
2022/01/19 06:43:20;;;;;;;13.88;9.30;;;;;;;1.40;74.08;100010.97;2617995;54;20019;-64
2022/01/19 06:45:52;;;;;;;12.25;8.75;;;;;;;1.43;74.07;100013.38;2618076;47;20564;-64
2022/01/19 06:48:22;;;;;;;11.65;7.78;;;;;;;1.46;74.00;100011.38;2617718;54;20057;-64
2022/01/19 06:50:51;;;;;;;15.05;9.90;;;;;;;1.50;73.92;100012.00;2618425;39;20477;-65
2022/01/19 06:53:37;;;;;;;13.35;8.73;;;;;;;1.40;73.49;100013.59;2617807;47;20058;-64
2022/01/19 06:56:12;;;;;;;13.30;8.93;;;;;;;1.30;73.67;100012.53;2618446;54;20042;-64
2022/01/19 06:58:42;;;;;;;13.40;8.75;;;;;;;1.32;73.42;100015.88;2618800;47;20035;-65
2022/01/19 07:01:32;;;;;;;13.32;9.40;;;;;;;1.29;73.58;100010.88;2619398;54;20061;-64
2022/01/19 07:04:27;;;;;;;13.32;8.75;;;;;;;1.24;73.49;100006.81;2618186;54;20027;-64
2022/01/19 07:06:57;;;;;;;12.38;8.52;;;;;;;1.19;74.01;100005.47;2618208;46;20053;-65
2022/01/19 07:09:49;;;;;;;15.35;10.90;;;;;;;1.21;73.93;100012.22;2618654;54;20023;-65
2022/01/19 07:12:19;;;;;;;15.43;9.97;;;;;;;1.16;73.85;100014.31;2618504;52;20030;-65
2022/01/19 07:14:50;;;;;;;13.45;8.77;;;;;;;1.18;73.88;100009.84;2618904;54;20019;-65
2022/01/19 07:17:19;;;;;;;20.77;9.13;;;;;;;1.17;73.55;100004.72;2618757;54;20031;-65
2022/01/19 07:19:49;;;;;;;15.77;9.27;;;;;;;1.20;73.71;100013.16;2618908;54;20054;-65
2022/01/19 07:22:19;;;;;;;11.30;8.57;;;;;;;1.23;73.59;100012.13;2618835;46;20645;-65
2022/01/19 07:24:58;;;;;;;16.02;10.57;;;;;;;1.19;73.58;100002.84;2618229;54;20022;-65
2022/01/19 07:27:28;;;;;;;15.82;8.50;;;;;;;1.14;73.93;100004.91;2618053;54;20027;-65
2022/01/19 07:29:58;;;;;;;12.55;8.18;;;;;;;1.23;73.62;100001.72;2617821;54;20023;-65
2022/01/19 07:32:33;;;;;;;10.15;8.35;;;;;;;1.29;73.56;100006.50;2618183;47;20023;-64
2022/01/19 07:35:03;;;;;;;12.70;8.77;;;;;;;1.30;73.21;99994.31;2618015;46;20042;-65
2022/01/19 07:37:33;;;;;;;15.63;9.75;;;;;;;1.21;73.19;100000.97;2617498;47;20037;-64
2022/01/19 07:40:07;;;;;;;15.13;9.43;;;;;;;1.15;73.97;99997.03;2617699;47;20046;-64
2022/01/19 07:42:37;;;;;;;13.50;9.88;;;;;;;1.18;74.02;100003.78;2617985;54;20026;-63
2022/01/19 07:45:08;;;;;;;17.63;9.60;;;;;;;1.21;73.78;99991.38;2618426;54;20162;-64
2022/01/19 07:48:03;;;;;;;14.18;9.10;;;;;;;1.20;73.91;99996.72;2617853;54;20126;-66
2022/01/19 07:50:49;;;;;;;18.20;9.55;;;;;;;1.31;73.63;99993.38;2617471;54;20023;-65
2022/01/19 07:53:41;;;;;;;19.73;11.00;;;;;;;1.34;73.48;99993.16;2618095;54;20051;-64
2022/01/19 07:56:31;;;;;;;17.17;10.50;;;;;;;1.44;73.81;99999.41;2618238;54;20629;-64
2022/01/19 07:59:07;;;;;;;14.88;9.07;;;;;;;1.52;73.78;99989.31;2618349;54;20030;-65
2022/01/19 08:01:57;;;;;;;16.05;9.70;;;;;;;1.60;73.79;99980.94;2617918;54;20038;-65
2022/01/19 08:04:45;;;;;;;14.40;9.40;;;;;;;1.58;73.76;99988.03;2618406;54;20050;-64
2022/01/19 08:07:19;;;;;;;16.40;9.32;;;;;;;1.62;73.73;99973.84;2617233;54;20074;-64
2022/01/19 08:09:51;;;;;;;15.85;10.13;;;;;;;1.63;73.56;99978.09;2619838;54;20038;-64
2022/01/19 08:12:23;;;;;;;13.18;8.93;;;;;;;1.61;73.60;99978.22;2621125;54;20052;-64
2022/01/19 08:14:53;;;;;;;14.07;9.43;;;;;;;1.65;73.49;99971.84;2617652;47;20030;-64
2022/01/19 08:17:30;;;;;;;16.40;9.00;;;;;;;1.71;73.70;99966.22;2617320;47;20080;-64
2022/01/19 08:20:00;;;;;;;15.43;9.80;;;;;;;1.86;73.61;99968.69;2617412;54;20086;-64
2022/01/19 08:22:30;;;;;;;13.63;9.48;;;;;;;1.95;73.55;99968.03;2617176;47;20030;-64
2022/01/19 08:25:19;;;;;;;14.40;9.57;;;;;;;2.06;73.78;99956.84;2617464;47;20031;-65
2022/01/19 08:27:51;;;;;;;17.52;10.02;;;;;;;2.11;73.90;99955.56;2618461;54;20078;-65
2022/01/19 08:30:29;;;;;;;15.88;10.93;;;;;;;2.20;73.86;99956.66;2617407;47;20562;-63
2022/01/19 08:32:59;;;;;;;21.73;11.07;;;;;;;2.35;73.84;99955.56;2617297;54;20030;-65
2022/01/19 08:35:37;;;;;;;18.48;11.30;;;;;;;2.51;73.25;99944.81;2617518;54;20568;-64
2022/01/19 08:38:25;;;;;;;16.33;10.65;;;;;;;2.54;73.33;99939.38;2618465;54;20574;-64
2022/01/19 08:41:08;;;;;;;17.85;10.82;;;;;;;2.58;72.99;99937.38;2617544;54;20026;-64
2022/01/19 08:43:41;;;;;;;19.20;11.90;;;;;;;2.62;73.32;99928.38;2617536;54;20149;-65
2022/01/19 08:46:12;;;;;;;18.88;11.75;;;;;;;2.72;72.88;99934.56;2617421;47;20585;-64
2022/01/19 08:49:10;;;;;;;17.88;11.35;;;;;;;2.83;73.06;99926.75;2617971;54;20126;-64
2022/01/19 08:51:58;;;;;;;16.55;12.00;;;;;;;2.86;72.51;99930.94;2617903;54;20051;-65
2022/01/19 08:54:34;;;;;;;18.77;12.45;;;;;;;2.84;72.50;99931.03;2617353;54;20661;-64
2022/01/19 08:57:09;;;;;;;20.15;12.38;;;;;;;2.93;72.20;99929.50;2617263;47;20553;-66
2022/01/19 08:59:41;;;;;;;20.50;12.98;;;;;;;2.94;72.52;99932.00;2618239;39;20430;-64
2022/01/19 09:02:12;;;;;;;21.77;14.07;;;;;;;2.90;71.99;99943.66;2618959;54;20027;-66
2022/01/19 09:04:42;;;;;;;23.00;14.10;;;;;;;2.81;72.23;99946.94;2617907;54;20558;-64
2022/01/19 09:07:11;;;;;;;22.23;14.00;;;;;;;2.80;72.46;99949.66;2617763;54;20042;-65
2022/01/19 09:09:41;;;;;;;19.13;13.48;;;;;;;2.75;72.14;99947.41;2623370;54;20031;-65
2022/01/19 09:12:12;;;;;;;21.27;13.73;;;;;;;2.75;72.70;99955.22;2624741;54;20038;-64
2022/01/19 09:14:44;;;;;;;23.85;15.10;;;;;;;2.70;72.66;99958.19;2623999;39;20441;-65
2022/01/19 09:17:14;;;;;;;23.60;14.32;;;;;;;2.55;72.35;99954.09;2624598;54;20035;-63
2022/01/19 09:19:44;;;;;;;24.00;14.77;;;;;;;2.40;72.58;99950.00;2624606;54;20030;-64
2022/01/19 09:22:15;;;;;;;26.85;16.90;;;;;;;2.33;72.40;99946.19;2624845;54;20035;-65
2022/01/19 09:24:45;;;;;;;22.63;15.48;;;;;;;2.28;72.61;99945.69;2625459;54;20031;-64
2022/01/19 09:27:18;;;;;;;23.65;15.40;;;;;;;2.29;72.59;99936.94;2622008;54;20038;-65
2022/01/19 09:29:50;;;;;;;25.63;16.33;;;;;;;2.26;72.88;99943.19;2626041;54;20031;-64
2022/01/19 09:32:24;;;;;;;25.33;16.42;;;;;;;2.26;73.11;99935.34;2625901;54;20097;-64
2022/01/19 09:34:56;;;;;;;22.73;15.88;;;;;;;2.22;72.75;99933.91;2624947;54;20030;-64
2022/01/19 09:37:26;;;;;;;23.80;14.98;;;;;;;2.30;72.86;99938.59;2624918;54;20033;-64
2022/01/19 09:40:16;;;;;;;27.05;16.48;;;;;;;2.31;73.22;99935.84;2624788;54;20078;-65
2022/01/19 09:42:46;;;;;;;22.38;15.98;;;;;;;2.31;72.81;99929.81;2624541;54;20034;-64
2022/01/19 09:45:18;;;;;;;23.85;15.27;;;;;;;2.29;72.82;99931.69;2624213;47;20031;-64
2022/01/19 09:47:48;;;;;;;27.58;16.48;;;;;;;2.27;73.17;99926.59;2624179;54;20030;-63
2022/01/19 09:50:18;;;;;;;27.20;16.73;;;;;;;2.31;73.17;99924.59;2626149;54;20027;-64
2022/01/19 09:52:47;;;;;;;25.20;17.05;;;;;;;2.40;73.30;99919.50;2626491;54;20081;-63
2022/01/19 09:55:17;;;;;;;25.52;16.45;;;;;;;2.41;72.83;99922.97;2625726;54;20110;-63
2022/01/19 09:57:47;;;;;;;28.65;18.77;;;;;;;2.41;72.94;99913.38;2625301;54;20035;-63
2022/01/19 10:00:19;;;;;;;26.08;16.77;;;;;;;2.48;72.84;99914.56;2625351;54;20037;-63
2022/01/19 10:03:13;;;;;;;25.13;16.17;;;;;;;2.38;73.10;99905.75;2625054;54;20038;-63
2022/01/19 10:06:03;;;;;;;27.55;16.63;;;;;;;2.40;73.06;99896.03;2625405;54;20055;-64
2022/01/19 10:08:35;;;;;;;26.90;16.67;;;;;;;2.45;72.99;99908.75;2625967;54;20030;-64
2022/01/19 10:11:20;;;;;;;29.38;17.83;;;;;;;2.44;72.83;99912.28;2626379;54;20031;-63
2022/01/19 10:17:03;;;;;;;28.88;17.95;;;;;;;2.43;73.30;99908.03;2626570;54;20030;-63
2022/01/19 10:19:35;;;;;;;27.63;16.70;;;;;;;2.51;73.42;99910.06;2624082;54;20026;-63
2022/01/19 10:22:09;;;;;;;28.30;17.20;;;;;;;2.55;73.10;99906.28;2624454;54;20041;-66
2022/01/19 10:24:42;;;;;;;35.17;19.30;;;;;;;2.55;72.85;99903.66;2623865;54;20058;-64
2022/01/19 10:27:23;;;;;;;28.00;17.05;;;;;;;2.57;73.27;99909.59;2623357;54;20055;-64
2022/01/19 10:29:54;;;;;;;26.90;17.00;;;;;;;2.60;73.05;99902.38;2623232;54;20038;-64
2022/01/19 10:32:28;;;;;;;43.10;24.83;;;;;;;2.52;73.02;99901.28;2624458;54;20047;-63
2022/01/19 10:34:59;;;;;;;38.25;24.75;;;;;;;2.51;73.11;99908.28;2625690;54;20062;-64
2022/01/19 10:37:30;;;;;;;30.10;17.90;;;;;;;2.47;73.26;99897.22;2624606;54;20059;-64
2022/01/19 10:40:01;;;;;;;29.00;16.95;;;;;;;2.50;73.34;99903.19;2625252;54;20026;-64
2022/01/19 10:42:33;;;;;;;29.52;17.10;;;;;;;2.47;73.01;99896.41;2625515;54;20026;-64
2022/01/19 10:45:07;;;;;;;31.73;18.52;;;;;;;2.38;73.01;99891.88;2625379;54;20125;-63
2022/01/19 10:47:47;;;;;;;26.75;17.35;;;;;;;2.49;73.83;99899.75;2625656;54;20035;-64
2022/01/19 10:50:21;;;;;;;27.65;17.15;;;;;;;2.52;73.09;99880.41;2625529;54;20074;-64
2022/01/19 10:52:51;;;;;;;33.63;19.52;;;;;;;2.52;73.27;99881.22;2625695;54;20041;-63
2022/01/19 10:55:30;;;;;;;27.77;17.77;;;;;;;2.53;72.90;99876.84;2624701;54;20039;-63
2022/01/19 10:58:01;;;;;;;31.92;18.83;;;;;;;2.54;73.09;99863.69;2625304;54;20045;-64
2022/01/19 11:00:33;;;;;;;32.20;18.90;;;;;;;2.60;73.34;99867.59;2625546;54;20031;-63
2022/01/19 11:03:20;;;;;;;35.13;19.77;;;;;;;2.52;72.84;99864.75;2625102;54;20042;-63
2022/01/19 11:05:52;;;;;;;32.22;18.00;;;;;;;2.50;72.99;99864.03;2625801;39;20462;-63
2022/01/19 11:08:24;;;;;;;26.13;17.08;;;;;;;2.44;73.48;99871.34;2624838;54;20042;-64
2022/01/19 11:10:55;;;;;;;30.92;18.80;;;;;;;2.53;73.57;99856.81;2625378;54;20038;-63
2022/01/19 11:13:31;;;;;;;34.70;19.23;;;;;;;2.57;73.48;99854.78;2624337;54;20058;-63
2022/01/19 11:16:03;;;;;;;30.25;17.95;;;;;;;2.55;73.47;99851.47;2623145;54;20035;-64
2022/01/19 11:18:39;;;;;;;30.35;17.17;;;;;;;2.53;73.37;99856.81;2619018;54;20033;-65
2022/01/19 11:21:11;;;;;;;31.77;18.23;;;;;;;2.51;73.37;99850.84;2618962;39;20706;-65
2022/01/19 11:23:51;;;;;;;30.05;17.05;;;;;;;2.51;73.49;99858.69;2618511;54;20049;-64
2022/01/19 11:26:29;;;;;;;30.23;17.45;;;;;;;2.45;73.55;99860.00;2618036;54;20094;-65
2022/01/19 11:29:17;;;;;;;28.67;17.17;;;;;;;2.46;73.94;99850.38;2618215;54;20191;-64
2022/01/19 11:31:48;;;;;;;28.60;16.55;;;;;;;2.46;73.65;99853.00;2618021;54;20063;-65
2022/01/19 11:34:40;;;;;;;31.65;17.00;;;;;;;2.39;74.30;99844.78;2618167;54;20039;-65
2022/01/19 11:37:09;;;;;;;30.42;18.42;;;;;;;2.38;74.40;99831.84;2617847;54;20117;-65
2022/01/19 11:39:39;;;;;;;30.52;17.13;;;;;;;2.34;74.26;99840.88;2618216;54;20120;-65
2022/01/19 11:42:09;;;;;;;32.67;17.77;;;;;;;2.32;74.86;99838.34;2618135;54;20082;-65
2022/01/19 11:44:43;;;;;;;30.88;18.48;;;;;;;2.33;75.01;99831.38;2618281;54;20053;-64
2022/01/19 14:21:28;;;;;;;32.00;15.70;;;;;;;2.58;78.56;99655.47;2603439;46;20058;-65
2022/01/19 14:24:00;;;;;;;29.80;15.80;;;;;;;2.58;78.66;99652.84;2617786;54;20077;-65
2022/01/19 14:26:31;;;;;;;31.92;15.95;;;;;;;2.56;78.89;99650.34;2618161;54;20031;-63
2022/01/19 14:29:13;;;;;;;32.55;16.77;;;;;;;2.68;79.07;99638.09;2618578;54;20030;-64
2022/01/19 14:31:53;;;;;;;33.65;17.15;;;;;;;2.69;78.53;99645.84;2619015;54;20026;-64
2022/01/19 14:34:38;;;;;;;36.25;17.42;;;;;;;2.70;78.55;99647.47;2618188;54;20042;-65
2022/01/19 14:37:18;;;;;;;35.20;17.60;;;;;;;2.71;78.49;99646.53;2619734;54;20045;-64
2022/01/19 14:39:51;;;;;;;34.05;17.58;;;;;;;2.67;78.75;99647.72;2619666;47;20030;-64
2022/01/19 14:42:23;;;;;;;34.67;17.13;;;;;;;2.68;78.58;99645.94;2618676;54;20030;-66
2022/01/19 14:45:03;;;;;;;32.95;17.08;;;;;;;2.70;78.32;99647.47;2618819;54;20074;-64
2022/01/19 14:47:39;;;;;;;33.65;15.43;;;;;;;2.67;78.34;99636.44;2618448;54;20576;-65
2022/01/19 14:50:30;;;;;;;33.63;16.90;;;;;;;2.61;79.03;99634.31;2618178;54;20030;-65
2022/01/19 14:53:02;;;;;;;32.60;16.90;;;;;;;2.62;78.78;99647.25;2618113;47;20054;-66
2022/01/19 14:55:34;;;;;;;32.85;16.45;;;;;;;2.60;78.62;99627.44;2618908;54;20561;-65
2022/01/19 14:58:26;;;;;;;33.78;17.00;;;;;;;2.55;79.04;99638.25;2618908;54;20039;-66
2022/01/19 15:00:57;;;;;;;31.25;17.55;;;;;;;2.59;79.17;99631.00;2618164;47;20029;-65
2022/01/19 15:03:28;;;;;;;37.45;18.20;;;;;;;2.67;78.91;99632.06;2618197;54;20038;-66
2022/01/19 15:05:58;;;;;;;34.33;17.25;;;;;;;2.64;78.86;99628.84;2618356;54;20581;-64
2022/01/19 15:08:30;;;;;;;37.13;18.88;;;;;;;2.62;79.16;99625.56;2618297;54;20038;-63
2022/01/19 15:10:59;;;;;;;31.58;16.75;;;;;;;2.62;79.38;99625.56;2618609;31;20541;-65
2022/01/19 15:13:29;;;;;;;35.17;18.45;;;;;;;2.62;79.61;99622.94;2618595;54;20557;-66
2022/01/19 15:15:59;;;;;;;33.75;17.58;;;;;;;2.63;79.15;99617.59;2618117;54;20078;-64
2022/01/19 15:18:30;;;;;;;32.00;17.58;;;;;;;2.67;79.20;99618.19;2618378;54;20045;-65
2022/01/19 15:21:00;;;;;;;36.30;16.90;;;;;;;2.66;79.48;99622.56;2617662;54;20033;-64
2022/01/19 15:23:32;;;;;;;34.10;18.90;;;;;;;2.69;79.30;99621.47;2617872;47;20038;-64
2022/01/19 15:26:02;;;;;;;29.17;15.57;;;;;;;2.69;78.91;99613.66;2618254;54;20023;-65
2022/01/19 15:28:32;;;;;;;30.25;17.10;;;;;;;2.68;78.87;99612.81;2618346;54;20030;-63
2022/01/19 15:31:02;;;;;;;30.90;16.15;;;;;;;2.64;78.77;99607.97;2617930;47;20078;-66
2022/01/19 15:33:32;;;;;;;30.27;15.23;;;;;;;2.57;78.88;99609.41;2618529;54;20030;-64
2022/01/19 15:36:04;;;;;;;31.52;17.00;;;;;;;2.60;79.03;99609.16;2617622;54;20041;-65
2022/01/19 15:38:44;;;;;;;34.08;17.75;;;;;;;2.62;79.48;99609.88;2618691;39;20692;-64
2022/01/19 15:41:15;;;;;;;36.65;18.63;;;;;;;2.56;79.55;99607.75;2618744;39;20442;-64
2022/01/19 15:43:45;;;;;;;38.20;19.60;;;;;;;2.55;79.43;99593.06;2617746;47;20064;-64
2022/01/19 15:46:16;;;;;;;34.53;17.70;;;;;;;2.59;79.89;99594.47;2618268;54;20553;-64